Terminal Aerodrome Forecast
Issued by NWS Spokane, WA

Home | Current Version | Previous Version | Text Only | Print | Product List | Glossary On
Versions: 1 2 3 4 5 6 7 8 9 10 11 12 13 14 15 16 17 18 19 20 21 22 23 24 25 26 27 28 29 30 31 32 33 34 35 36 37 38 39 40 41 42 43 44 45 46 47 48 49 50
000
FTUS46 KOTX 191529 AAB
TAFGEG
TAF AMD
KGEG 191529Z 1915/2012 20006KT 3SM -RASN BR BKN007 OVC010
     FM191700 17007KT 6SM BR SCT009 OVC019
      TEMPO 1917/1920 -SHRA
     FM192300 17008KT P6SM BKN025 OVC050
     FM200800 06007KT 3SM -SHRA BR OVC012=

USA.gov is the U.S. government's official web portal to all federal, state and local government web resources and services.